Bent, New Mexico
Current Conditions -  °F | °C
As of 6:58 PM on Saturday 25 Oct 2014 (Local Time) from KHMN Reporting Station
Clear Clear  
Wind Chill: 73°   Ceiling: Unl
Heat Index: 73°   Visibility: 10mi
Dew Point: 45°   Wind: 7mph
Humidity: 36%   Direction: 140°SE
Pressure: 30.12"   Gusts: NA
Location:  33.16°N, 105.86°W
Report Text: KHMN 260058Z AUTO 14006KT 10SM CLR 23/07 A3012 RMK AO2 SLP153 T02280070 $
Loading
Personal Weather Stations






























Interactive Weather Map
Tropical Storm Tracking
New forecast layout! Learn more

10-Day Weather Forecast

Advertisements
Track Severe Weather on mobile